Adair Village, Oregon
Current Conditions -  °F | °C
As of 12:35 PM on Thursday 27 Nov 2014 (Local Time) from KCVO Reporting Station
Overcast Overcast  
Wind Chill: 55°   Ceiling: 6000
Heat Index: 55°   Visibility: 9mi
Dew Point: 52°   Wind: 14mph
Humidity: 88%   Direction: 180°S
Pressure: 29.99"   Gusts: NA
Location:  44.6364°N, 123.28°W
Report Text: KCVO 272035Z AUTO 18012KT 9SM FEW036 SCT046 OVC060 13/11 A2999 RMK AO1
Loading
Personal Weather Stations






























Interactive Weather Map New forecast layout! Learn more

10-Day Weather Forecast

Advertisements
Track Severe Weather on mobile